createdAt,value
2018-10-02T00:01:52.777Z,46.58
2018-10-02T00:03:58.857Z,46.91
2018-10-02T00:06:04.972Z,47.03
2018-10-02T00:08:11.048Z,46.79
2018-10-02T00:10:17.111Z,46.69
2018-10-02T00:12:28.461Z,46.73
2018-10-02T00:14:34.771Z,47.08
2018-10-02T00:16:40.844Z,47.16
2018-10-02T00:18:46.966Z,46.96
2018-10-02T00:20:53.017Z,47.31
2018-10-02T00:22:59.156Z,46.91
2018-10-02T00:25:05.817Z,47.47
2018-10-02T00:27:11.857Z,47.53
2018-10-02T00:29:17.959Z,47.27
2018-10-02T00:31:24.122Z,47.26
2018-10-02T00:33:30.136Z,47.38
2018-10-02T00:35:36.229Z,47.34
2018-10-02T00:37:42.348Z,47.23
2018-10-02T00:39:48.463Z,47.71
2018-10-02T00:41:54.585Z,47.54
2018-10-02T00:44:00.671Z,47.58
2018-10-02T00:46:06.866Z,47.49
2018-10-02T00:48:12.936Z,48.25
2018-10-02T00:50:19.049Z,48.26
2018-10-02T00:52:25.165Z,47.63
2018-10-02T00:54:31.228Z,48.17
2018-10-02T00:56:37.300Z,47.75
2018-10-02T00:58:43.431Z,47.87
2018-10-02T01:00:49.507Z,48.62
2018-10-02T01:02:55.578Z,47.74
2018-10-02T01:05:01.696Z,48.33
2018-10-02T01:07:07.897Z,47.85
2018-10-02T01:09:13.995Z,47.89
2018-10-02T01:11:20.090Z,48.38
2018-10-02T01:13:26.249Z,47.80
2018-10-02T01:15:32.295Z,47.93
2018-10-02T01:17:38.374Z,47.50
2018-10-02T01:19:44.442Z,47.75
2018-10-02T01:21:50.534Z,47.93
2018-10-02T01:23:56.627Z,48.51
2018-10-02T01:26:02.735Z,48.20
2018-10-02T01:28:08.969Z,48.41
2018-10-02T01:30:15.124Z,48.61
2018-10-02T01:32:21.191Z,48.51
2018-10-02T01:34:27.275Z,48.67
2018-10-02T01:36:33.368Z,47.92
2018-10-02T01:38:39.666Z,48.21
2018-10-02T01:40:45.785Z,48.46
2018-10-02T01:42:51.887Z,48.39
2018-10-02T01:44:58.011Z,48.75
2018-10-02T01:47:04.124Z,48.32
2018-10-02T01:49:10.179Z,48.73
2018-10-02T01:51:16.290Z,48.21
2018-10-02T01:53:22.356Z,48.78
2018-10-02T01:55:28.547Z,49.04
2018-10-02T01:57:34.673Z,49.24
2018-10-02T01:59:40.736Z,48.99
2018-10-02T02:01:46.897Z,48.76
2018-10-02T02:03:52.977Z,48.96
2018-10-02T02:05:59.024Z,49.09
2018-10-02T02:08:05.231Z,49.45
2018-10-02T02:10:11.321Z,49.60
2018-10-02T02:12:17.398Z,49.46
2018-10-02T02:14:23.492Z,49.41
2018-10-02T02:16:29.615Z,49.61
2018-10-02T02:18:35.701Z,49.30
2018-10-02T02:20:41.786Z,49.31
2018-10-02T02:22:47.931Z,49.52
2018-10-02T02:24:54.000Z,49.87
2018-10-02T02:27:00.091Z,49.49
2018-10-02T02:29:06.262Z,49.08
2018-10-02T02:31:12.390Z,49.74
2018-10-02T02:33:18.485Z,49.68
2018-10-02T02:35:24.534Z,49.53
2018-10-02T02:37:30.622Z,49.86
2018-10-02T02:39:36.732Z,49.50
2018-10-02T02:41:42.961Z,50.06
2018-10-02T02:43:49.036Z,49.56
2018-10-02T02:45:55.174Z,49.44
2018-10-02T02:48:06.442Z,49.96
2018-10-02T02:50:17.752Z,49.43
2018-10-02T02:52:25.962Z,49.74
2018-10-02T02:54:31.999Z,49.68
2018-10-02T02:56:38.089Z,49.46
2018-10-02T02:58:44.197Z,50.16
2018-10-02T03:00:50.276Z,49.75
2018-10-02T03:02:56.334Z,49.93
2018-10-02T03:05:02.471Z,49.70
2018-10-02T03:07:08.583Z,50.07
2018-10-02T03:09:14.761Z,50.20
2018-10-02T03:11:20.921Z,50.19
2018-10-02T03:13:27.047Z,50.42
2018-10-02T03:15:33.188Z,50.42
2018-10-02T03:17:39.300Z,50.48
2018-10-02T03:19:46.036Z,50.69
2018-10-02T03:21:52.965Z,50.77
2018-10-02T03:23:59.011Z,50.79
2018-10-02T03:26:05.165Z,51.11
2018-10-02T03:28:11.312Z,50.55
2018-10-02T03:30:17.397Z,51.04
2018-10-02T03:32:23.516Z,50.81
2018-10-02T03:34:29.641Z,51.05
2018-10-02T03:36:35.782Z,50.51
2018-10-02T03:38:41.855Z,50.61
2018-10-02T03:40:47.941Z,50.93
2018-10-02T03:42:54.004Z,50.71
2018-10-02T03:45:00.098Z,50.60
2018-10-02T03:47:06.328Z,51.10
2018-10-02T03:49:12.426Z,51.07
2018-10-02T03:51:18.475Z,50.98
2018-10-02T03:53:24.659Z,51.41
2018-10-02T03:55:30.798Z,51.24
2018-10-02T03:57:37.276Z,51.57
2018-10-02T03:59:43.402Z,51.72
2018-10-02T04:01:49.495Z,51.54
2018-10-02T04:03:55.612Z,51.79
2018-10-02T04:06:01.728Z,51.73
2018-10-02T04:08:07.824Z,51.63
2018-10-02T04:10:13.953Z,51.98
2018-10-02T04:12:20.098Z,51.63
2018-10-02T04:14:26.198Z,51.43
2018-10-02T04:16:32.318Z,51.93
2018-10-02T04:18:38.591Z,51.77
2018-10-02T04:20:44.754Z,51.82
2018-10-02T04:22:50.851Z,51.53
2018-10-02T04:24:56.940Z,51.76
2018-10-02T04:27:03.107Z,51.97
2018-10-02T04:29:09.239Z,51.52
2018-10-02T04:31:15.396Z,51.58
2018-10-02T04:33:21.459Z,51.48
2018-10-02T04:35:27.554Z,51.37
2018-10-02T04:37:33.670Z,51.72
2018-10-02T04:39:39.833Z,52.02
2018-10-02T04:41:45.909Z,51.72
2018-10-02T04:43:52.013Z,52.26
2018-10-02T04:45:58.084Z,52.39
2018-10-02T04:48:04.268Z,52.19
2018-10-02T04:50:10.363Z,51.97
2018-10-02T04:52:16.503Z,52.13
2018-10-02T04:54:22.563Z,52.24
2018-10-02T04:56:28.727Z,52.82
2018-10-02T04:58:34.815Z,52.68
2018-10-02T05:00:41.097Z,52.98
2018-10-02T05:02:47.183Z,52.35
2018-10-02T05:04:53.302Z,52.64
2018-10-02T05:06:59.405Z,52.36
2018-10-02T05:09:07.501Z,53.14
2018-10-02T05:11:13.555Z,52.85
2018-10-02T05:13:19.657Z,53.22
2018-10-02T05:15:25.803Z,52.92
2018-10-02T05:17:31.889Z,52.93
2018-10-02T05:19:38.020Z,52.95
2018-10-02T05:21:44.190Z,53.13
2018-10-02T05:23:50.287Z,53.11
2018-10-02T05:25:56.426Z,52.87
2018-10-02T05:28:02.562Z,52.84
2018-10-02T05:30:08.760Z,53.11
2018-10-02T05:32:14.857Z,53.22
2018-10-02T05:34:21.019Z,53.08
2018-10-02T05:36:27.129Z,53.46
2018-10-02T05:38:33.280Z,53.29
2018-10-02T05:40:39.381Z,53.44
2018-10-02T05:42:45.482Z,53.34
2018-10-02T05:44:51.611Z,53.37
2018-10-02T05:46:57.702Z,53.67
2018-10-02T05:49:03.776Z,53.72
2018-10-02T05:51:10.024Z,53.74
2018-10-02T05:53:16.143Z,53.77
2018-10-02T05:55:22.313Z,53.64
2018-10-02T05:57:28.665Z,54.15
2018-10-02T05:59:34.829Z,54.09
2018-10-02T06:01:41.071Z,53.87
2018-10-02T06:03:47.926Z,53.70
2018-10-02T06:05:53.991Z,53.87
2018-10-02T06:08:00.119Z,53.70
2018-10-02T06:10:06.792Z,54.05
2018-10-02T06:12:12.985Z,54.06
2018-10-02T06:14:19.137Z,54.12
2018-10-02T06:16:25.289Z,54.18
2018-10-02T06:18:31.468Z,54.16
2018-10-02T06:20:38.200Z,53.93
2018-10-02T06:22:44.360Z,54.29
2018-10-02T06:24:50.532Z,54.30
2018-10-02T06:26:56.548Z,54.05
2018-10-02T06:29:02.686Z,54.80
2018-10-02T06:31:08.891Z,54.85
2018-10-02T06:33:15.015Z,54.51
2018-10-02T06:35:21.236Z,54.68
2018-10-02T06:37:27.354Z,54.33
2018-10-02T06:39:34.172Z,53.95
2018-10-02T06:41:40.289Z,53.97
2018-10-02T06:43:46.568Z,54.60
2018-10-02T06:45:52.589Z,54.33
2018-10-02T06:47:58.715Z,53.80
2018-10-02T06:50:04.838Z,53.70
2018-10-02T06:52:11.120Z,54.19
2018-10-02T06:54:17.117Z,54.44
2018-10-02T06:56:23.303Z,54.04
2018-10-02T06:58:29.392Z,54.24
2018-10-02T07:00:35.938Z,54.18
2018-10-02T07:02:42.242Z,54.23
2018-10-02T07:04:48.368Z,54.25
2018-10-02T07:06:55.340Z,54.23
2018-10-02T07:09:01.503Z,53.84
2018-10-02T07:11:07.796Z,53.88
2018-10-02T07:13:13.900Z,53.62
2018-10-02T07:15:20.035Z,54.40
2018-10-02T07:17:26.290Z,53.79
2018-10-02T07:19:32.345Z,53.94
2018-10-02T07:21:38.498Z,53.71
2018-10-02T07:23:44.755Z,54.26
2018-10-02T07:25:50.875Z,53.71
2018-10-02T07:27:57.099Z,54.15
2018-10-02T07:30:03.169Z,54.12
2018-10-02T07:32:09.287Z,53.86
2018-10-02T07:34:15.517Z,54.06
2018-10-02T07:36:21.657Z,53.75
2018-10-02T07:38:27.756Z,53.74
2018-10-02T07:40:33.817Z,53.86
2018-10-02T07:42:40.271Z,53.60
2018-10-02T07:44:46.382Z,53.34
2018-10-02T07:46:52.563Z,53.00
2018-10-02T07:48:59.516Z,52.92
2018-10-02T07:51:06.579Z,53.57
2018-10-02T07:53:12.766Z,52.82
2018-10-02T07:55:18.915Z,52.72
2018-10-02T07:57:25.083Z,52.63
2018-10-02T07:59:31.297Z,52.97
2018-10-02T08:01:37.413Z,53.23
2018-10-02T08:03:43.571Z,52.93
2018-10-02T08:05:49.704Z,53.36
2018-10-02T08:07:55.874Z,53.29
2018-10-02T08:10:02.007Z,52.52
2018-10-02T08:12:08.385Z,53.24
2018-10-02T08:14:14.418Z,53.03
2018-10-02T08:16:20.618Z,52.84
2018-10-02T08:18:26.797Z,53.73
2018-10-02T08:20:32.974Z,52.66
2018-10-02T08:22:39.078Z,52.83
2018-10-02T08:24:45.281Z,52.79
2018-10-02T08:26:51.557Z,53.06
2018-10-02T08:28:57.849Z,53.29
2018-10-02T08:31:03.985Z,52.69
2018-10-02T08:33:10.232Z,52.99
2018-10-02T08:35:16.369Z,53.19
2018-10-02T08:37:22.543Z,52.63
2018-10-02T08:39:28.639Z,52.83
2018-10-02T08:41:34.764Z,52.69
2018-10-02T08:43:41.018Z,52.14
2018-10-02T08:45:47.065Z,52.73
2018-10-02T08:47:53.281Z,52.75
2018-10-02T08:49:59.452Z,52.45
2018-10-02T08:52:06.399Z,52.57
2018-10-02T08:54:12.466Z,52.49
2018-10-02T08:56:18.694Z,51.86
2018-10-02T08:58:26.920Z,52.30
2018-10-02T09:00:33.157Z,51.47
2018-10-02T09:02:39.312Z,51.90
2018-10-02T09:04:45.467Z,51.56
2018-10-02T09:06:51.691Z,52.26
2018-10-02T09:08:57.740Z,51.64
2018-10-02T09:11:03.904Z,51.53
2018-10-02T09:13:10.128Z,51.80
2018-10-02T09:15:16.315Z,51.46
2018-10-02T09:17:22.394Z,51.52
2018-10-02T09:19:28.739Z,50.93
2018-10-02T09:21:34.955Z,50.82
2018-10-02T09:23:41.020Z,51.07
2018-10-02T09:25:47.141Z,51.26
2018-10-02T09:27:53.330Z,50.94
2018-10-02T09:30:04.645Z,50.82
2018-10-02T09:32:16.114Z,50.72
2018-10-02T09:34:27.326Z,50.45
2018-10-02T09:36:38.641Z,50.35
2018-10-02T09:38:49.803Z,50.35
2018-10-02T09:41:01.203Z,50.41
2018-10-02T09:43:12.719Z,49.93
2018-10-02T09:45:20.362Z,49.84
2018-10-02T09:47:26.518Z,50.24
2018-10-02T09:49:32.656Z,50.09
2018-10-02T09:51:38.841Z,50.27
2018-10-02T09:53:45.063Z,49.86
2018-10-02T09:55:51.275Z,50.40
2018-10-02T09:57:57.464Z,50.00
2018-10-02T10:00:03.758Z,50.32
2018-10-02T10:02:10.203Z,50.04
2018-10-02T10:04:16.750Z,50.34
2018-10-02T10:06:22.804Z,49.77
2018-10-02T10:08:28.933Z,49.79
2018-10-02T10:10:35.139Z,49.51
2018-10-02T10:12:41.157Z,49.43
2018-10-02T10:14:47.340Z,49.83
2018-10-02T10:16:53.491Z,49.41
2018-10-02T10:18:59.614Z,49.85
2018-10-02T10:21:05.877Z,49.73
2018-10-02T10:23:12.044Z,49.41
2018-10-02T10:25:18.198Z,49.40
2018-10-02T10:27:24.403Z,49.81
2018-10-02T10:29:30.662Z,49.33
2018-10-02T10:31:36.945Z,49.48
2018-10-02T10:33:43.370Z,49.25
2018-10-02T10:35:49.492Z,49.35
2018-10-02T10:37:55.667Z,49.43
2018-10-02T10:40:02.116Z,49.40
2018-10-02T10:42:08.456Z,48.64
2018-10-02T10:44:14.591Z,49.32
2018-10-02T10:46:20.771Z,49.54
2018-10-02T10:48:27.045Z,48.53
2018-10-02T10:50:33.090Z,49.32
2018-10-02T10:52:39.511Z,48.77
2018-10-02T10:55:02.529Z,49.16
2018-10-02T10:57:08.986Z,48.01
2018-10-02T10:59:15.147Z,48.39
2018-10-02T11:01:21.369Z,48.38
2018-10-02T11:03:27.547Z,47.88
2018-10-02T11:05:33.748Z,47.74
2018-10-02T11:07:39.869Z,47.65
2018-10-02T11:09:47.894Z,47.95
2018-10-02T11:11:54.017Z,47.85
2018-10-02T11:14:00.227Z,48.18
2018-10-02T11:16:06.372Z,48.06
2018-10-02T11:18:13.088Z,48.28
2018-10-02T11:20:24.512Z,47.51
2018-10-02T11:22:30.631Z,47.76
2018-10-02T11:24:36.757Z,47.91
2018-10-02T11:26:42.858Z,47.74
2018-10-02T11:28:49.023Z,47.36
2018-10-02T11:30:55.157Z,47.67
2018-10-02T11:33:01.342Z,48.07
2018-10-02T11:35:07.577Z,47.46
2018-10-02T11:37:13.704Z,47.53
2018-10-02T11:39:19.835Z,47.22
2018-10-02T11:41:25.955Z,47.31
2018-10-02T11:43:32.081Z,47.95
2018-10-02T11:45:38.294Z,47.67
2018-10-02T11:47:44.611Z,47.74
2018-10-02T11:49:50.873Z,47.09
2018-10-02T11:51:56.950Z,47.46
2018-10-02T11:54:03.159Z,47.08
2018-10-02T11:56:09.361Z,47.40
2018-10-02T11:58:15.548Z,47.97
2018-10-02T12:00:22.952Z,47.41
2018-10-02T12:02:29.352Z,47.92
2018-10-02T12:04:36.409Z,47.69
2018-10-02T12:06:42.716Z,47.78
2018-10-02T12:08:48.857Z,47.76
2018-10-02T12:10:54.945Z,47.86
2018-10-02T12:13:02.219Z,47.96
2018-10-02T12:15:08.427Z,48.43
2018-10-02T12:17:14.571Z,48.46
2018-10-02T12:19:20.813Z,48.30
2018-10-02T12:21:26.974Z,47.54
2018-10-02T12:23:33.121Z,47.72
2018-10-02T12:25:39.265Z,47.49
2018-10-02T12:27:45.352Z,47.51
2018-10-02T12:29:51.480Z,47.75
2018-10-02T12:31:57.626Z,48.09
2018-10-02T12:34:03.791Z,47.57
2018-10-02T12:36:09.955Z,47.88
2018-10-02T12:38:16.055Z,47.60
2018-10-02T12:40:22.288Z,47.83
2018-10-02T12:42:28.442Z,47.71
2018-10-02T12:44:34.637Z,47.34
2018-10-02T12:46:40.806Z,48.18
2018-10-02T12:48:46.969Z,48.00
2018-10-02T12:50:53.180Z,48.29
2018-10-02T12:53:01.468Z,47.99
2018-10-02T12:55:07.728Z,47.62
2018-10-02T12:57:13.856Z,47.60
2018-10-02T12:59:20.085Z,47.32
2018-10-02T13:01:26.160Z,47.65
2018-10-02T13:03:32.280Z,48.18
2018-10-02T13:05:38.404Z,48.21
2018-10-02T13:07:44.546Z,47.25
2018-10-02T13:09:50.705Z,47.46
2018-10-02T13:11:56.897Z,47.97
2018-10-02T13:14:03.115Z,47.80
2018-10-02T13:16:09.360Z,46.93
2018-10-02T13:18:15.515Z,47.47
2018-10-02T13:20:22.455Z,46.85
2018-10-02T13:22:28.549Z,47.08
2018-10-02T13:24:34.900Z,46.53
2018-10-02T13:26:40.924Z,46.53
2018-10-02T13:28:47.795Z,47.35
2018-10-02T13:30:53.947Z,47.18
2018-10-02T13:33:00.055Z,46.23
2018-10-02T13:35:06.435Z,46.72
2018-10-02T13:37:12.576Z,46.33
2018-10-02T13:39:18.670Z,46.61
2018-10-02T13:41:24.805Z,46.82
2018-10-02T13:43:30.937Z,46.17
2018-10-02T13:45:37.419Z,45.83
2018-10-02T13:47:43.572Z,46.74
2018-10-02T13:49:50.542Z,46.18
2018-10-02T13:51:57.043Z,45.60
2018-10-02T13:54:03.193Z,45.68
2018-10-02T13:56:09.370Z,46.14
2018-10-02T13:58:15.581Z,45.35
2018-10-02T14:00:21.849Z,45.61
2018-10-02T14:02:27.994Z,45.34
2018-10-02T14:04:34.173Z,45.50
2018-10-02T14:06:40.328Z,46.07
2018-10-02T14:08:46.521Z,45.52
2018-10-02T14:10:52.784Z,45.49
2018-10-02T14:12:58.950Z,45.33
2018-10-02T14:15:05.309Z,45.00
2018-10-02T14:17:12.386Z,45.48
2018-10-02T14:19:18.603Z,45.36
2018-10-02T14:21:25.285Z,45.24
2018-10-02T14:23:31.371Z,45.09
2018-10-02T14:25:37.520Z,45.49
2018-10-02T14:27:43.691Z,45.25
2018-10-02T14:29:49.824Z,45.60
2018-10-02T14:31:56.014Z,45.20
2018-10-02T14:34:02.196Z,45.01
2018-10-02T14:36:08.389Z,45.31
2018-10-02T14:38:14.530Z,45.32
2018-10-02T14:40:20.646Z,45.41
2018-10-02T14:42:26.921Z,45.14
2018-10-02T14:44:33.032Z,45.41
2018-10-02T14:46:39.477Z,45.80
2018-10-02T14:48:45.720Z,45.18
2018-10-02T14:50:51.868Z,45.47
2018-10-02T14:52:58.028Z,45.89
2018-10-02T14:55:04.186Z,45.91
2018-10-02T14:57:10.669Z,46.00
2018-10-02T14:59:17.002Z,45.54
2018-10-02T15:01:23.129Z,46.18
2018-10-02T15:03:29.905Z,46.07
2018-10-02T15:05:36.312Z,46.36
2018-10-02T15:07:42.488Z,45.53
2018-10-02T15:09:48.668Z,45.74
2018-10-02T15:11:54.843Z,46.31
2018-10-02T15:14:01.185Z,46.16
2018-10-02T15:16:07.498Z,46.62
2018-10-02T15:18:13.774Z,46.19
2018-10-02T15:20:19.925Z,46.03
2018-10-02T15:22:26.062Z,46.21
2018-10-02T15:24:32.330Z,46.59
2018-10-02T15:26:38.458Z,46.46
2018-10-02T15:28:44.674Z,46.85
2018-10-02T15:30:50.874Z,46.67
2018-10-02T15:32:57.058Z,46.41
2018-10-02T15:35:03.298Z,46.92
2018-10-02T15:37:09.968Z,46.72
2018-10-02T15:39:16.166Z,46.44
2018-10-02T15:41:22.391Z,46.64
2018-10-02T15:43:28.614Z,46.38
2018-10-02T15:45:34.839Z,46.64
2018-10-02T15:47:41.040Z,46.37
2018-10-02T15:49:47.276Z,46.75
2018-10-02T15:51:53.453Z,46.66
2018-10-02T15:53:59.620Z,47.35
2018-10-02T15:56:05.921Z,46.82
2018-10-02T15:58:12.243Z,47.02
2018-10-02T16:00:18.399Z,46.62
2018-10-02T16:02:24.624Z,47.55
2018-10-02T16:04:30.796Z,47.02
2018-10-02T16:06:37.014Z,47.12
2018-10-02T16:08:43.589Z,47.47
2018-10-02T16:10:49.849Z,46.85
2018-10-02T16:12:56.094Z,47.26
2018-10-02T16:15:02.247Z,47.06
2018-10-02T16:17:08.551Z,47.84
2018-10-02T16:19:14.723Z,47.40
2018-10-02T16:21:20.940Z,47.47
2018-10-02T16:23:27.169Z,47.46
2018-10-02T16:25:33.466Z,47.53
2018-10-02T16:27:39.704Z,47.96
2018-10-02T16:29:46.035Z,48.00
2018-10-02T16:31:52.252Z,47.75
2018-10-02T16:33:58.485Z,47.13
2018-10-02T16:36:04.852Z,47.49
2018-10-02T16:38:10.958Z,48.13
2018-10-02T16:40:17.129Z,47.25
2018-10-02T16:42:23.435Z,48.10
2018-10-02T16:44:29.645Z,48.20
2018-10-02T16:46:35.836Z,47.94
2018-10-02T16:48:43.157Z,47.75
2018-10-02T16:50:49.417Z,47.65
2018-10-02T16:52:55.555Z,47.94
2018-10-02T16:55:01.788Z,47.31
2018-10-02T16:57:08.140Z,47.63
2018-10-02T16:59:14.568Z,48.02
2018-10-02T17:01:20.776Z,47.95
2018-10-02T17:03:26.895Z,47.99
2018-10-02T17:05:33.029Z,47.71
2018-10-02T17:07:39.262Z,48.07
2018-10-02T17:09:45.413Z,47.60
2018-10-02T17:11:51.631Z,47.47
2018-10-02T17:13:57.835Z,47.92
2018-10-02T17:16:03.942Z,47.58
2018-10-02T17:18:10.138Z,47.46
2018-10-02T17:20:16.319Z,47.53
2018-10-02T17:22:22.493Z,47.52
2018-10-02T17:24:28.683Z,47.99
2018-10-02T17:26:34.854Z,48.06
2018-10-02T17:28:41.074Z,47.43
2018-10-02T17:30:47.300Z,47.85
2018-10-02T17:32:53.410Z,48.01
2018-10-02T17:34:59.673Z,47.43
2018-10-02T17:37:05.841Z,48.24
2018-10-02T17:39:12.347Z,47.75
2018-10-02T17:41:18.693Z,48.07
2018-10-02T17:43:24.966Z,47.46
2018-10-02T17:45:31.205Z,47.98
2018-10-02T17:47:37.382Z,48.45
2018-10-02T17:49:43.575Z,47.93
2018-10-02T17:51:49.745Z,48.45
2018-10-02T17:53:56.457Z,47.70
2018-10-02T17:56:02.618Z,48.21
2018-10-02T17:58:09.244Z,48.33
2018-10-02T18:00:15.477Z,47.93
2018-10-02T18:02:21.733Z,48.17
2018-10-02T18:04:27.890Z,48.22
2018-10-02T18:06:34.021Z,47.88
2018-10-02T18:08:40.405Z,48.50
2018-10-02T18:10:46.861Z,48.05
2018-10-02T18:12:53.079Z,48.09
2018-10-02T18:14:59.328Z,48.88
2018-10-02T18:17:05.518Z,48.11
2018-10-02T18:19:11.847Z,48.63
2018-10-02T18:21:18.055Z,48.30
2018-10-02T18:23:24.301Z,48.17
2018-10-02T18:25:30.432Z,48.36
2018-10-02T18:27:36.667Z,48.95
2018-10-02T18:29:42.863Z,48.21
2018-10-02T18:31:49.119Z,48.94
2018-10-02T18:33:55.269Z,48.05
2018-10-02T18:36:01.476Z,48.88
2018-10-02T18:38:07.747Z,48.05
2018-10-02T18:40:13.850Z,48.55
2018-10-02T18:42:20.169Z,48.91
2018-10-02T18:44:26.320Z,48.92
2018-10-02T18:46:33.101Z,48.38
2018-10-02T18:48:39.460Z,48.09
2018-10-02T18:50:45.657Z,48.85
2018-10-02T18:52:51.946Z,48.50
2018-10-02T18:54:58.181Z,49.15
2018-10-02T18:57:04.583Z,48.75
2018-10-02T18:59:10.862Z,48.35
2018-10-02T19:01:17.052Z,48.95
2018-10-02T19:03:23.296Z,48.69
2018-10-02T19:05:29.726Z,48.68
2018-10-02T19:07:35.952Z,48.71
2018-10-02T19:09:42.185Z,49.25
2018-10-02T19:11:53.535Z,49.26
2018-10-02T19:13:59.907Z,48.55
2018-10-02T19:16:11.377Z,48.96
2018-10-02T19:18:17.768Z,49.37
2018-10-02T19:20:29.303Z,49.43
2018-10-02T19:22:35.670Z,48.94
2018-10-02T19:24:41.983Z,48.80
2018-10-02T19:26:48.348Z,49.01
2018-10-02T19:28:54.944Z,49.30
2018-10-02T19:31:07.569Z,49.39
2018-10-02T19:33:14.426Z,49.46
2018-10-02T19:35:20.690Z,49.38
2018-10-02T19:37:32.077Z,49.14
2018-10-02T19:39:38.320Z,48.90
2018-10-02T19:41:44.647Z,49.00
2018-10-02T19:43:51.203Z,49.07
2018-10-02T19:46:02.652Z,49.27
2018-10-02T19:48:08.900Z,49.65
2018-10-02T19:50:15.248Z,49.23
2018-10-02T19:52:21.476Z,49.69
2018-10-02T19:54:27.784Z,49.53
2018-10-02T19:56:34.129Z,49.61
2018-10-02T19:58:40.349Z,49.16
2018-10-02T20:00:47.198Z,49.68
2018-10-02T20:02:53.528Z,50.06
2018-10-02T20:04:59.941Z,49.26
2018-10-02T20:07:06.358Z,49.52
2018-10-02T20:09:12.931Z,50.01
2018-10-02T20:11:19.807Z,50.20
2018-10-02T20:13:26.376Z,50.06
2018-10-02T20:15:32.632Z,50.33
2018-10-02T20:17:38.900Z,50.11
2018-10-02T20:19:45.207Z,49.61
2018-10-02T20:21:51.582Z,49.66
2018-10-02T20:23:57.840Z,50.27
2018-10-02T20:26:04.152Z,50.59
2018-10-02T20:28:10.482Z,49.89
2018-10-02T20:30:16.881Z,49.81
2018-10-02T20:32:23.324Z,50.08
2018-10-02T20:34:29.553Z,50.44
2018-10-02T20:36:36.098Z,49.78
2018-10-02T20:38:42.481Z,49.85
2018-10-02T20:40:49.932Z,50.61
2018-10-02T20:42:56.181Z,50.17
2018-10-02T20:45:02.398Z,50.27
2018-10-02T20:47:08.580Z,49.97
2018-10-02T20:49:14.988Z,50.11
2018-10-02T20:51:21.211Z,50.61
2018-10-02T20:53:27.386Z,49.81
2018-10-02T20:55:33.666Z,50.75
2018-10-02T20:57:40.591Z,49.88
2018-10-02T20:59:46.772Z,50.67
2018-10-02T21:01:53.029Z,50.12
2018-10-02T21:03:59.232Z,50.34
2018-10-02T21:06:05.500Z,50.33
2018-10-02T21:08:11.666Z,50.79
2018-10-02T21:10:17.875Z,50.80
2018-10-02T21:12:24.137Z,50.50
2018-10-02T21:14:30.402Z,50.83
2018-10-02T21:16:36.550Z,50.58
2018-10-02T21:18:42.783Z,51.11
2018-10-02T21:20:48.928Z,50.93
2018-10-02T21:22:55.160Z,51.04
2018-10-02T21:25:01.325Z,51.86
2018-10-02T21:27:07.561Z,51.54
2018-10-02T21:29:13.656Z,51.57
2018-10-02T21:31:19.876Z,51.43
2018-10-02T21:33:26.173Z,52.08
2018-10-02T21:35:32.324Z,52.14
2018-10-02T21:37:38.732Z,51.91
2018-10-02T21:39:45.247Z,51.95
2018-10-02T21:43:53.749Z,52.12
2018-10-02T21:45:59.872Z,51.81
2018-10-02T21:48:06.051Z,51.89
2018-10-02T21:50:12.216Z,51.88
2018-10-02T21:52:18.355Z,52.20
2018-10-02T21:54:24.585Z,52.79
2018-10-02T21:56:30.741Z,52.26
2018-10-02T21:58:36.947Z,52.63
2018-10-02T22:00:43.150Z,52.39
2018-10-02T22:02:49.307Z,52.53
2018-10-02T22:04:55.538Z,52.38
2018-10-02T22:07:01.809Z,52.35
2018-10-02T22:09:09.992Z,52.38
2018-10-02T22:11:16.150Z,52.51
2018-10-02T22:13:22.316Z,52.95
2018-10-02T22:15:28.627Z,52.87
2018-10-02T22:17:34.731Z,52.40
2018-10-02T22:19:40.925Z,53.18
2018-10-02T22:21:47.130Z,52.19
2018-10-02T22:23:53.274Z,52.34
2018-10-02T22:25:59.426Z,52.29
2018-10-02T22:28:05.643Z,52.37
2018-10-02T22:30:13.278Z,52.82
2018-10-02T22:32:19.387Z,52.49
2018-10-02T22:34:25.572Z,53.26
2018-10-02T22:36:31.759Z,52.71
2018-10-02T22:38:37.840Z,53.24
2018-10-02T22:40:43.981Z,53.21
2018-10-02T22:42:50.095Z,53.37
2018-10-02T22:44:56.232Z,53.18
2018-10-02T22:47:02.434Z,53.40
2018-10-02T22:49:08.656Z,53.19
2018-10-02T22:51:14.838Z,52.99
2018-10-02T22:53:21.005Z,53.58
2018-10-02T22:55:27.193Z,52.99
2018-10-02T22:57:33.393Z,52.93
2018-10-02T22:59:39.587Z,52.81
2018-10-02T23:01:45.896Z,53.37
2018-10-02T23:03:52.113Z,53.09
2018-10-02T23:05:58.225Z,53.45
2018-10-02T23:08:04.429Z,53.20
2018-10-02T23:10:10.604Z,53.09
2018-10-02T23:12:16.819Z,53.13
2018-10-02T23:14:22.932Z,53.57
2018-10-02T23:16:29.073Z,53.47
2018-10-02T23:18:35.218Z,53.49
2018-10-02T23:20:41.351Z,53.22
2018-10-02T23:22:47.503Z,53.05
2018-10-02T23:24:53.686Z,53.80
2018-10-02T23:26:59.919Z,53.41
2018-10-02T23:29:06.133Z,53.22
2018-10-02T23:31:12.310Z,53.03
2018-10-02T23:33:18.457Z,53.97
2018-10-02T23:35:24.574Z,53.49
2018-10-02T23:37:30.917Z,54.22
2018-10-02T23:39:37.045Z,53.73
2018-10-02T23:41:43.230Z,54.37
2018-10-02T23:43:49.341Z,53.62
2018-10-02T23:45:55.642Z,54.31
2018-10-02T23:48:01.778Z,54.00
2018-10-02T23:50:07.897Z,54.25
2018-10-02T23:52:14.048Z,54.03
2018-10-02T23:54:20.182Z,54.32
2018-10-02T23:56:26.261Z,54.22
2018-10-02T23:58:32.357Z,53.73
